Time;durP1;ratioP1;P1;durP2;ratioP2;P2;SDS_P1;SDS_P2;PMS_P1;PMS_P2;Temp;Humidity;BMP_temperature;BMP_pressure;BME280_temperature;BME280_humidity;BME280_pressure;Samples;Min_cycle;Max_cycle;Signal;HPM_P1;HPM_P2
2023/01/06 00:00:41;;;;;;;6.18;2.95;;;10.80;99.90;;;;;;5034894;28;20362;-79
2023/01/06 00:03:08;;;;;;;10.02;3.58;;;10.80;99.90;;;;;;5033575;28;20041;-83
2023/01/06 00:05:34;;;;;;;9.73;2.88;;;10.80;99.90;;;;;;5012560;28;20033;-81
2023/01/06 00:08:01;;;;;;;6.18;2.97;;;10.70;99.90;;;;;;5035867;28;20532;-79
2023/01/06 00:10:27;;;;;;;6.63;3.25;;;10.80;99.90;;;;;;5029315;28;20038;-81
2023/01/06 00:12:53;;;;;;;9.48;2.78;;;10.80;99.90;;;;;;5032651;28;20408;-80
2023/01/06 00:15:20;;;;;;;5.70;2.50;;;10.80;99.90;;;;;;5018476;28;20041;-81
2023/01/06 00:17:46;;;;;;;12.27;3.33;;;10.80;99.90;;;;;;5019081;28;20081;-82
2023/01/06 00:20:13;;;;;;;7.88;3.38;;;10.80;99.90;;;;;;5028173;28;20080;-82
2023/01/06 00:22:40;;;;;;;6.45;3.47;;;10.80;99.90;;;;;;5012026;28;20041;-76
2023/01/06 00:25:09;;;;;;;7.90;3.03;;;10.80;99.90;;;;;;5020676;28;20029;-80
2023/01/06 00:27:35;;;;;;;9.48;3.80;;;10.80;99.90;;;;;;5030662;28;20405;-83
2023/01/06 00:30:02;;;;;;;6.00;3.15;;;10.80;99.90;;;;;;5028346;28;20041;-80
2023/01/06 00:32:29;;;;;;;9.30;3.72;;;10.80;99.90;;;;;;5014975;28;20381;-79
2023/01/06 00:34:57;;;;;;;8.55;3.15;;;10.80;99.90;;;;;;5016542;28;20046;-80
2023/01/06 00:37:24;;;;;;;6.85;3.08;;;10.80;99.90;;;;;;5011478;28;20053;-79
2023/01/06 00:39:51;;;;;;;6.07;2.97;;;10.80;99.90;;;;;;5021989;28;20084;-80
2023/01/06 00:42:17;;;;;;;7.28;3.35;;;10.80;99.90;;;;;;5043071;28;20472;-79
2023/01/06 00:44:43;;;;;;;8.85;3.38;;;10.80;99.90;;;;;;5012372;28;20496;-82
2023/01/06 00:47:11;;;;;;;5.75;3.50;;;10.80;99.90;;;;;;5020904;28;20052;-81
2023/01/06 00:49:38;;;;;;;7.00;2.88;;;10.80;99.90;;;;;;5029324;28;20045;-81
2023/01/06 00:52:05;;;;;;;9.13;3.30;;;10.80;99.90;;;;;;5021846;28;20041;-81
2023/01/06 00:54:32;;;;;;;6.28;3.40;;;10.80;99.90;;;;;;5037298;28;20065;-81
2023/01/06 00:56:58;;;;;;;13.65;4.60;;;10.80;99.90;;;;;;5010659;28;20041;-82
2023/01/06 00:59:25;;;;;;;7.25;3.75;;;10.80;99.90;;;;;;5030074;28;20045;-80
2023/01/06 01:01:54;;;;;;;7.43;3.55;;;10.80;99.90;;;;;;5019282;28;20040;-82
2023/01/06 01:04:21;;;;;;;8.25;3.38;;;10.80;99.90;;;;;;5035521;28;20029;-79
2023/01/06 01:06:48;;;;;;;6.78;3.10;;;10.80;99.90;;;;;;5027711;28;20337;-80
2023/01/06 01:09:22;;;;;;;4.28;2.45;;;10.80;99.90;;;;;;5030640;28;20050;-82
2023/01/06 01:14:41;;;;;;;6.18;4.03;;;10.80;99.90;;;;;;5034785;28;20033;-79
2023/01/06 01:17:09;;;;;;;5.43;3.03;;;10.80;99.90;;;;;;5028220;28;20500;-81
2023/01/06 01:19:37;;;;;;;11.45;5.13;;;10.80;99.90;;;;;;5028223;28;20060;-81
2023/01/06 01:22:03;;;;;;;5.75;3.83;;;10.90;99.90;;;;;;5029617;28;20049;-80
2023/01/06 01:24:29;;;;;;;5.45;2.78;;;10.80;99.90;;;;;;5017174;28;20040;-81
2023/01/06 01:26:56;;;;;;;8.07;3.75;;;10.90;99.90;;;;;;5029794;28;20474;-78
2023/01/06 01:29:25;;;;;;;5.78;2.05;;;10.80;99.90;;;;;;5028075;28;20045;-80
2023/01/06 01:31:52;;;;;;;6.32;2.80;;;10.80;99.90;;;;;;5014252;28;20042;-78
2023/01/06 01:34:18;;;;;;;4.32;2.35;;;10.80;99.90;;;;;;5036618;28;20048;-80
2023/01/06 01:36:47;;;;;;;8.73;3.05;;;10.80;99.90;;;;;;5029248;28;20032;-80
2023/01/06 01:39:15;;;;;;;7.93;3.05;;;10.80;99.90;;;;;;5008594;28;20508;-80
2023/01/06 01:41:41;;;;;;;5.57;2.22;;;10.80;99.90;;;;;;5023094;28;20496;-79
2023/01/06 01:44:45;;;;;;;5.85;2.63;;;10.80;99.90;;;;;;5010812;28;20512;-81
2023/01/06 01:47:16;;;;;;;8.18;2.72;;;10.80;99.90;;;;;;5025988;28;20037;-79
2023/01/06 01:49:45;;;;;;;6.25;3.63;;;10.80;99.90;;;;;;5029615;28;20052;-80
2023/01/06 01:52:13;;;;;;;4.47;2.97;;;10.80;99.90;;;;;;5024564;28;20368;-80
2023/01/06 01:54:40;;;;;;;4.25;2.33;;;10.80;99.90;;;;;;5016151;28;20044;-80
2023/01/06 01:57:18;;;;;;;5.07;3.03;;;10.80;99.90;;;;;;5026397;28;20514;-78
2023/01/06 01:59:45;;;;;;;9.27;3.15;;;10.80;99.90;;;;;;5010495;28;20650;-80
2023/01/06 02:02:14;;;;;;;4.40;2.08;;;10.80;99.90;;;;;;5028541;28;20033;-78
2023/01/06 02:04:43;;;;;;;4.25;1.88;;;10.80;99.90;;;;;;5008740;28;20044;-79
2023/01/06 02:07:10;;;;;;;4.20;2.38;;;10.90;99.90;;;;;;5025311;28;20044;-80
2023/01/06 02:10:02;;;;;;;5.18;2.00;;;10.90;99.90;;;;;;5028170;28;20041;-79
2023/01/06 02:12:30;;;;;;;6.90;3.08;;;10.90;99.90;;;;;;5009515;28;20444;-79
2023/01/06 02:14:56;;;;;;;4.45;2.10;;;10.80;99.90;;;;;;5022500;28;20037;-80
2023/01/06 02:18:09;;;;;;;3.67;1.42;;;10.80;99.90;;;;;;5012671;28;20048;-77
2023/01/06 02:20:35;;;;;;;4.47;2.10;;;10.80;99.90;;;;;;5030162;28;20053;-81
2023/01/06 02:23:14;;;;;;;3.65;1.60;;;10.80;99.90;;;;;;5031881;28;20049;-81
2023/01/06 02:26:12;;;;;;;9.07;1.90;;;10.80;99.90;;;;;;5011262;28;20049;-80
2023/01/06 02:28:49;;;;;;;4.10;1.00;;;10.80;99.90;;;;;;5019669;28;20049;-78
2023/01/06 02:31:37;;;;;;;8.25;1.50;;;10.80;99.90;;;;;;5011170;28;20041;-81
2023/01/06 02:34:31;;;;;;;6.60;1.42;;;10.90;99.90;;;;;;5023901;28;20045;-79
2023/01/06 02:37:09;;;;;;;2.63;1.27;;;10.90;99.90;;;;;;5030032;28;20021;-82
2023/01/06 02:40:06;;;;;;;4.60;1.50;;;10.80;99.90;;;;;;5026660;28;20056;-80
2023/01/06 02:42:41;;;;;;;5.75;1.25;;;10.90;99.90;;;;;;5017149;28;20483;-82
2023/01/06 02:45:33;;;;;;;2.85;1.00;;;10.80;99.90;;;;;;5028582;28;20508;-82
2023/01/06 02:48:11;;;;;;;2.50;0.90;;;10.80;99.90;;;;;;5032337;28;20046;-80
2023/01/06 02:51:00;;;;;;;5.50;1.05;;;10.80;99.90;;;;;;5018685;28;20291;-81
2023/01/06 02:53:40;;;;;;;2.97;1.15;;;10.80;99.90;;;;;;5017958;28;20036;-80
2023/01/06 02:56:07;;;;;;;2.63;0.70;;;10.80;99.90;;;;;;5030559;28;20034;-80
2023/01/06 02:58:54;;;;;;;4.78;1.20;;;10.80;99.90;;;;;;5012596;28;20045;-78
2023/01/06 03:01:31;;;;;;;3.17;1.20;;;10.80;99.90;;;;;;5018085;28;20052;-80
2023/01/06 03:04:06;;;;;;;4.13;1.05;;;10.80;99.90;;;;;;5024677;28;20043;-76
2023/01/06 03:06:43;;;;;;;6.03;1.70;;;10.80;99.90;;;;;;5035245;28;20022;-81
2023/01/06 03:09:22;;;;;;;4.35;1.15;;;10.70;99.90;;;;;;5024843;28;20044;-76
2023/01/06 03:11:50;;;;;;;5.78;1.73;;;10.70;99.90;;;;;;5010396;28;20041;-79
2023/01/06 03:14:32;;;;;;;3.83;1.23;;;10.80;99.90;;;;;;5035581;28;20037;-79
2023/01/06 03:16:59;;;;;;;3.17;1.13;;;10.70;99.90;;;;;;5009720;28;20511;-80
2023/01/06 03:19:31;;;;;;;2.63;0.70;;;10.70;99.90;;;;;;5026935;28;20056;-80
2023/01/06 03:22:00;;;;;;;4.05;0.88;;;10.80;99.90;;;;;;5015583;28;20091;-81
2023/01/06 03:24:27;;;;;;;4.18;0.90;;;10.70;99.90;;;;;;4991411;28;20052;-79
2023/01/06 03:26:55;;;;;;;4.45;1.17;;;10.70;99.90;;;;;;5013477;28;20037;-78
2023/01/06 03:29:22;;;;;;;2.78;0.90;;;10.80;99.90;;;;;;5026821;28;20036;-79
2023/01/06 03:32:04;;;;;;;4.45;1.30;;;10.80;99.90;;;;;;5029026;28;20033;-80
2023/01/06 03:34:46;;;;;;;2.85;1.05;;;10.80;99.90;;;;;;5007729;28;20040;-76
2023/01/06 03:37:25;;;;;;;4.03;1.08;;;10.80;99.90;;;;;;5010323;28;20194;-81
2023/01/06 03:40:04;;;;;;;4.97;1.55;;;10.70;99.90;;;;;;5033518;28;20056;-82
2023/01/06 03:45:52;;;;;;;4.63;1.00;;;10.80;99.90;;;;;;5024241;28;20033;-80
2023/01/06 03:48:48;;;;;;;8.27;1.15;;;10.70;99.90;;;;;;5034060;28;20040;-80
2023/01/06 03:51:53;;;;;;;5.55;1.13;;;10.80;99.90;;;;;;5033880;28;20041;-77
2023/01/06 03:54:37;;;;;;;4.68;1.00;;;10.70;99.90;;;;;;4953339;28;20062;-80
2023/01/06 03:57:19;;;;;;;4.28;0.90;;;10.70;99.90;;;;;;5034608;28;20076;-80
2023/01/06 03:59:52;;;;;;;2.20;0.80;;;10.70;99.90;;;;;;5014126;28;20496;-80
2023/01/06 04:02:20;;;;;;;2.35;0.65;;;10.70;99.90;;;;;;5014227;28;20063;-78
2023/01/06 04:05:21;;;;;;;3.42;0.82;;;10.70;99.90;;;;;;5039903;28;20037;-79
2023/01/06 04:07:49;;;;;;;6.45;0.75;;;10.70;99.90;;;;;;4981072;28;20049;-79
2023/01/06 04:10:18;;;;;;;3.80;0.80;;;10.70;99.90;;;;;;5028467;28;20033;-81
2023/01/06 04:12:47;;;;;;;4.88;1.17;;;10.70;99.90;;;;;;5013244;28;20490;-79
2023/01/06 04:15:21;;;;;;;4.60;0.82;;;10.70;99.90;;;;;;5015177;28;20510;-78
2023/01/06 04:17:48;;;;;;;3.33;0.70;;;10.70;99.90;;;;;;5012769;28;20065;-81
2023/01/06 04:20:19;;;;;;;2.67;0.60;;;10.70;99.90;;;;;;5012961;28;20025;-80
2023/01/06 04:22:46;;;;;;;2.42;0.50;;;10.70;99.90;;;;;;5021387;28;20492;-79
2023/01/06 04:25:13;;;;;;;1.75;0.60;;;10.70;99.90;;;;;;5033448;28;20044;-80
2023/01/06 04:27:41;;;;;;;2.05;0.50;;;10.70;99.90;;;;;;5028339;28;20526;-78
2023/01/06 04:30:08;;;;;;;2.60;1.15;;;10.70;99.90;;;;;;5037676;28;21338;-81
2023/01/06 04:32:34;;;;;;;3.17;0.73;;;10.70;99.90;;;;;;5044733;28;20041;-80
2023/01/06 04:35:05;;;;;;;6.20;1.00;;;10.70;99.90;;;;;;5030480;28;20064;-79
2023/01/06 04:37:32;;;;;;;3.40;1.00;;;10.70;99.90;;;;;;5011484;28;20021;-81
2023/01/06 04:39:59;;;;;;;2.95;0.50;;;10.70;99.90;;;;;;5031457;28;20022;-80
2023/01/06 04:42:25;;;;;;;3.50;0.50;;;10.70;99.90;;;;;;5029458;28;20250;-78
2023/01/06 04:44:51;;;;;;;4.38;0.70;;;10.80;99.90;;;;;;5028175;28;20428;-78
2023/01/06 04:47:18;;;;;;;4.25;0.55;;;10.70;99.90;;;;;;5027586;28;20060;-79
2023/01/06 04:49:44;;;;;;;4.00;0.40;;;10.70;99.90;;;;;;5031785;28;20045;-77
2023/01/06 04:52:10;;;;;;;2.80;0.60;;;10.70;99.90;;;;;;5024494;28;20037;-79
2023/01/06 04:54:36;;;;;;;2.50;0.60;;;10.70;99.90;;;;;;5027459;28;20059;-78
2023/01/06 04:57:03;;;;;;;1.35;0.75;;;10.80;99.90;;;;;;5003858;28;20052;-79
2023/01/06 04:59:29;;;;;;;2.42;0.65;;;10.80;99.90;;;;;;5026699;28;20044;-77
2023/01/06 05:01:55;;;;;;;1.70;0.60;;;10.70;99.90;;;;;;5008772;28;20041;-79
2023/01/06 05:04:21;;;;;;;4.80;0.60;;;10.80;99.90;;;;;;5026674;28;20476;-77
2023/01/06 05:06:48;;;;;;;3.72;0.60;;;10.70;99.90;;;;;;5021102;28;20040;-79
2023/01/06 05:09:14;;;;;;;3.67;0.50;;;10.80;99.90;;;;;;5013264;28;20039;-80
2023/01/06 05:11:40;;;;;;;1.98;0.70;;;10.80;99.90;;;;;;5020596;28;20036;-79
2023/01/06 05:14:07;;;;;;;4.78;0.50;;;10.80;99.90;;;;;;5027592;28;20041;-78
2023/01/06 05:16:34;;;;;;;3.35;0.40;;;10.80;99.90;;;;;;5038803;28;20053;-79
2023/01/06 05:19:00;;;;;;;2.90;0.82;;;10.80;99.90;;;;;;5027227;28;20048;-78
2023/01/06 05:21:28;;;;;;;5.15;0.73;;;10.80;99.90;;;;;;5003873;28;20053;-79
2023/01/06 05:23:55;;;;;;;2.50;0.60;;;10.80;99.90;;;;;;5036067;28;20040;-79
2023/01/06 05:26:23;;;;;;;1.83;0.60;;;10.80;99.90;;;;;;5037427;28;20056;-79
2023/01/06 05:28:50;;;;;;;2.50;0.50;;;10.80;99.90;;;;;;5031020;28;20045;-77
2023/01/06 05:31:16;;;;;;;2.58;0.60;;;10.80;99.90;;;;;;5033951;28;20029;-78
2023/01/06 05:33:43;;;;;;;3.00;0.60;;;10.80;99.90;;;;;;5030113;28;20039;-76
2023/01/06 05:36:15;;;;;;;5.18;0.57;;;10.80;99.90;;;;;;5028715;28;20037;-79
2023/01/06 05:38:41;;;;;;;2.55;0.45;;;10.80;99.90;;;;;;5042538;28;20056;-78
2023/01/06 05:41:08;;;;;;;3.72;0.60;;;10.80;99.90;;;;;;5011896;28;20040;-78
2023/01/06 05:43:35;;;;;;;2.85;0.60;;;10.80;99.90;;;;;;5032725;28;20633;-78
2023/01/06 05:46:06;;;;;;;2.13;0.50;;;10.90;99.90;;;;;;5028481;28;20053;-78
2023/01/06 05:48:33;;;;;;;3.15;0.80;;;10.90;99.90;;;;;;5010810;28;20040;-80
2023/01/06 05:51:11;;;;;;;2.30;0.43;;;10.80;99.90;;;;;;5011058;28;20045;-76
2023/01/06 05:53:39;;;;;;;6.65;1.02;;;10.90;99.90;;;;;;5039721;28;20056;-79
2023/01/06 05:56:08;;;;;;;2.35;0.40;;;10.90;99.90;;;;;;5026781;28;20056;-80
2023/01/06 05:58:35;;;;;;;2.25;0.55;;;10.80;99.90;;;;;;5028093;28;20036;-79
2023/01/06 06:01:03;;;;;;;2.53;0.60;;;10.80;99.90;;;;;;5031612;28;20430;-79
2023/01/06 06:03:30;;;;;;;3.20;0.55;;;10.90;99.90;;;;;;5025741;28;20033;-77
2023/01/06 06:06:04;;;;;;;2.90;0.50;;;10.90;99.90;;;;;;5032042;28;20036;-76
2023/01/06 06:08:30;;;;;;;2.65;0.52;;;10.90;99.90;;;;;;5017251;28;20033;-78
2023/01/06 06:11:05;;;;;;;2.05;0.60;;;10.90;99.90;;;;;;5015318;28;20033;-77
2023/01/06 06:13:31;;;;;;;3.25;0.60;;;10.90;99.90;;;;;;5008679;28;20435;-79
2023/01/06 06:16:09;;;;;;;2.20;0.70;;;10.90;99.90;;;;;;5028985;28;20033;-80
2023/01/06 06:18:41;;;;;;;2.15;0.50;;;10.90;99.90;;;;;;5039476;28;20333;-77
2023/01/06 06:21:13;;;;;;;2.60;0.90;;;10.90;99.90;;;;;;5013584;28;20040;-83
2023/01/06 06:23:41;;;;;;;3.60;1.20;;;10.80;99.90;;;;;;5030399;28;20050;-80
2023/01/06 06:26:08;;;;;;;3.17;0.73;;;10.80;99.90;;;;;;5011273;28;20067;-81
2023/01/06 06:28:35;;;;;;;1.20;0.88;;;10.70;99.90;;;;;;5031506;28;20059;-81
2023/01/06 06:31:12;;;;;;;3.30;0.68;;;10.70;99.90;;;;;;5027588;28;20052;-79
2023/01/06 06:33:39;;;;;;;2.35;0.60;;;10.70;99.90;;;;;;5014041;28;20041;-82
2023/01/06 06:36:16;;;;;;;1.75;0.70;;;10.70;99.90;;;;;;5011479;28;20071;-78
2023/01/06 06:38:47;;;;;;;1.83;0.60;;;10.70;99.90;;;;;;5026628;28;20044;-80
2023/01/06 06:41:13;;;;;;;3.38;0.70;;;10.70;99.90;;;;;;5009122;28;20044;-81
2023/01/06 06:43:40;;;;;;;2.90;0.70;;;10.70;99.90;;;;;;5010099;28;20041;-78
2023/01/06 06:46:06;;;;;;;1.48;0.75;;;10.70;99.90;;;;;;5027739;28;20052;-80
2023/01/06 06:48:33;;;;;;;3.15;0.70;;;10.70;99.90;;;;;;5021011;28;20042;-79
2023/01/06 06:51:02;;;;;;;2.00;0.68;;;10.70;99.90;;;;;;5006682;28;20040;-80
2023/01/06 06:53:29;;;;;;;2.38;0.63;;;10.70;99.90;;;;;;5002564;28;20044;-79
2023/01/06 06:55:55;;;;;;;2.00;0.80;;;10.70;99.90;;;;;;5000295;28;20040;-81
2023/01/06 06:58:22;;;;;;;2.40;0.60;;;10.70;99.90;;;;;;5033934;28;20044;-78
2023/01/06 07:00:48;;;;;;;1.88;0.70;;;10.80;99.90;;;;;;5013991;28;20048;-78
2023/01/06 07:03:14;;;;;;;3.35;0.90;;;10.80;99.90;;;;;;5031530;28;20049;-80
2023/01/06 07:05:43;;;;;;;3.03;0.77;;;10.80;99.90;;;;;;5032989;28;20480;-81
2023/01/06 07:08:13;;;;;;;2.90;1.00;;;10.80;99.90;;;;;;5026027;28;20036;-76
2023/01/06 07:10:39;;;;;;;2.80;1.10;;;10.80;99.90;;;;;;5033585;28;20053;-81
2023/01/06 07:13:06;;;;;;;2.42;0.82;;;10.80;99.90;;;;;;5027077;28;20037;-79
2023/01/06 07:15:32;;;;;;;1.50;0.82;;;10.80;99.90;;;;;;5034598;28;20036;-80
2023/01/06 07:18:04;;;;;;;2.03;0.90;;;10.80;99.90;;;;;;5031909;28;20057;-79
2023/01/06 07:20:32;;;;;;;2.08;1.25;;;10.80;99.90;;;;;;5028123;28;20044;-80
2023/01/06 07:22:58;;;;;;;1.88;0.60;;;10.80;99.90;;;;;;5012387;28;20229;-81
2023/01/06 07:25:25;;;;;;;2.97;0.93;;;10.80;99.90;;;;;;5034135;28;20032;-77
2023/01/06 07:27:56;;;;;;;2.05;0.90;;;10.80;99.90;;;;;;5031731;28;20029;-81
2023/01/06 07:30:24;;;;;;;2.10;0.70;;;10.90;99.90;;;;;;5030277;28;20030;-79
2023/01/06 07:32:50;;;;;;;1.58;1.00;;;10.90;99.90;;;;;;5021864;28;20045;-77
2023/01/06 07:35:17;;;;;;;2.42;1.05;;;10.90;99.90;;;;;;5028042;28;20739;-80
2023/01/06 07:37:44;;;;;;;3.22;1.30;;;10.80;99.90;;;;;;5027932;28;20041;-77
2023/01/06 07:40:10;;;;;;;3.38;1.30;;;10.90;99.90;;;;;;5029331;28;20033;-77
2023/01/06 07:42:37;;;;;;;3.53;1.52;;;10.80;99.90;;;;;;5014719;28;20049;-75
2023/01/06 07:45:04;;;;;;;1.80;1.60;;;10.80;99.90;;;;;;5031032;28;20423;-83
2023/01/06 07:47:30;;;;;;;2.50;1.33;;;10.70;99.90;;;;;;5030973;28;20041;-82
2023/01/06 07:49:56;;;;;;;4.82;1.60;;;10.70;99.90;;;;;;5030387;28;20484;-83
2023/01/06 07:52:23;;;;;;;3.30;1.83;;;10.70;99.90;;;;;;5036536;28;20393;-88
2023/01/06 07:54:49;;;;;;;3.08;2.10;;;10.60;99.90;;;;;;5028950;28;20029;-86
2023/01/06 07:57:15;;;;;;;4.15;2.30;;;10.60;99.90;;;;;;5033258;28;20046;-82
2023/01/06 07:59:41;;;;;;;3.55;2.30;;;10.50;99.90;;;;;;4999337;28;20045;-79
2023/01/06 08:02:10;;;;;;;4.22;2.38;;;10.50;99.90;;;;;;5030568;28;20042;-87
2023/01/06 08:04:36;;;;;;;3.40;2.97;;;10.50;99.90;;;;;;5013107;28;20052;-87
2023/01/06 08:07:02;;;;;;;4.13;3.83;;;10.50;99.90;;;;;;5034607;28;20025;-85
2023/01/06 08:09:29;;;;;;;3.50;3.17;;;10.50;99.90;;;;;;5034610;28;20032;-82
2023/01/06 08:11:56;;;;;;;4.03;3.63;;;10.50;99.90;;;;;;5020697;28;20537;-84
2023/01/06 08:14:22;;;;;;;3.80;3.20;;;10.50;99.90;;;;;;5012262;28;20048;-83
2023/01/06 08:16:49;;;;;;;5.18;4.18;;;10.50;99.90;;;;;;5029903;28;20033;-85
2023/01/06 08:19:15;;;;;;;7.60;6.90;;;10.50;99.90;;;;;;5013127;28;20045;-79
2023/01/06 08:21:41;;;;;;;7.38;6.57;;;10.50;99.90;;;;;;5014380;28;20052;-82
2023/01/06 08:24:08;;;;;;;5.03;3.95;;;10.50;99.90;;;;;;5034310;28;20029;-78
2023/01/06 08:26:34;;;;;;;3.88;3.47;;;10.50;99.90;;;;;;5034599;28;20037;-84
2023/01/06 08:29:01;;;;;;;5.22;4.80;;;10.50;99.90;;;;;;5008563;28;20511;-85
2023/01/06 08:31:27;;;;;;;5.38;4.97;;;10.50;99.90;;;;;;5020843;28;20033;-82
2023/01/06 08:33:54;;;;;;;4.93;4.53;;;10.50;99.90;;;;;;5027517;28;20045;-81
2023/01/06 08:36:22;;;;;;;4.43;4.03;;;10.50;99.90;;;;;;5020024;28;20033;-82
2023/01/06 08:38:48;;;;;;;4.40;4.10;;;10.50;99.90;;;;;;5041488;28;20068;-84
2023/01/06 08:41:15;;;;;;;5.40;5.00;;;10.50;99.90;;;;;;5028736;28;20566;-84
2023/01/06 08:43:44;;;;;;;4.80;4.28;;;10.50;99.90;;;;;;5029866;28;20029;-81
2023/01/06 08:46:13;;;;;;;5.18;4.78;;;10.50;99.90;;;;;;5010157;28;20499;-82
2023/01/06 08:48:40;;;;;;;5.40;4.90;;;10.50;99.90;;;;;;5034176;28;20515;-82
2023/01/06 08:51:11;;;;;;;4.38;3.97;;;10.50;99.90;;;;;;5032906;28;20415;-83
2023/01/06 08:53:37;;;;;;;4.63;4.13;;;10.50;99.90;;;;;;5028010;28;20052;-81
2023/01/06 08:56:10;;;;;;;4.05;3.67;;;10.60;99.90;;;;;;5015498;28;20033;-80
2023/01/06 08:58:36;;;;;;;4.15;3.45;;;10.60;99.90;;;;;;5006349;28;20037;-81
2023/01/06 09:01:02;;;;;;;4.30;3.55;;;10.60;99.90;;;;;;5037787;28;20592;-82
2023/01/06 09:03:28;;;;;;;3.65;3.35;;;10.70;99.90;;;;;;5007184;28;20044;-80
2023/01/06 09:05:56;;;;;;;4.00;3.65;;;10.70;99.90;;;;;;5037074;28;20037;-80
2023/01/06 09:08:23;;;;;;;4.05;3.65;;;10.80;99.90;;;;;;5011624;28;20043;-81
2023/01/06 09:10:50;;;;;;;5.90;3.90;;;10.80;99.90;;;;;;5019285;28;20040;-80
2023/01/06 09:13:16;;;;;;;6.45;4.10;;;10.80;99.90;;;;;;5031750;28;20056;-80
2023/01/06 09:15:43;;;;;;;7.35;5.40;;;10.80;99.90;;;;;;5018101;28;20397;-82
2023/01/06 09:18:10;;;;;;;5.80;4.20;;;10.80;99.90;;;;;;4999165;28;20049;-84
2023/01/06 09:20:37;;;;;;;5.18;4.18;;;10.90;99.90;;;;;;5022238;28;20060;-82
2023/01/06 09:23:03;;;;;;;3.63;3.17;;;10.90;99.90;;;;;;5030276;28;20041;-82
2023/01/06 09:25:29;;;;;;;5.78;3.30;;;11.00;99.90;;;;;;5012601;28;20041;-80
2023/01/06 09:27:57;;;;;;;3.13;1.73;;;11.00;99.90;;;;;;5019483;28;20273;-78
2023/01/06 09:30:24;;;;;;;5.72;2.83;;;11.10;99.90;;;;;;5037259;28;20029;-80
2023/01/06 09:32:50;;;;;;;4.43;1.88;;;11.20;99.90;;;;;;5025512;28;20036;-77
2023/01/06 09:35:17;;;;;;;5.55;2.33;;;11.30;99.90;;;;;;5033658;28;20042;-80
2023/01/06 09:37:43;;;;;;;4.13;2.03;;;11.30;99.90;;;;;;5020805;28;20033;-83
2023/01/06 09:40:16;;;;;;;4.25;1.63;;;11.40;99.90;;;;;;5036828;28;20040;-79
2023/01/06 09:43:17;;;;;;;6.35;1.55;;;11.40;99.90;;;;;;5006203;28;20045;-75
2023/01/06 09:45:49;;;;;;;2.88;1.00;;;11.50;99.90;;;;;;5028173;28;20037;-78
2023/01/06 09:48:22;;;;;;;3.50;1.23;;;11.50;99.90;;;;;;5035595;28;20029;-81
2023/01/06 09:50:52;;;;;;;3.10;1.20;;;11.40;99.90;;;;;;5018910;28;20036;-77
2023/01/06 09:53:27;;;;;;;5.82;1.38;;;11.50;99.90;;;;;;5026544;28;20483;-82
2023/01/06 09:55:59;;;;;;;3.95;1.15;;;11.50;99.90;;;;;;5015454;28;20060;-82
2023/01/06 09:58:53;;;;;;;4.55;0.90;;;11.50;99.90;;;;;;5042917;28;20033;-84
2023/01/06 10:01:27;;;;;;;3.83;1.00;;;11.50;99.90;;;;;;5030905;28;20042;-83
2023/01/06 10:03:55;;;;;;;7.35;1.50;;;11.40;99.90;;;;;;5007937;28;20037;-84
2023/01/06 10:06:36;;;;;;;5.03;1.50;;;11.30;99.90;;;;;;5023605;28;20048;-78
2023/01/06 10:09:18;;;;;;;6.82;2.00;;;11.20;99.90;;;;;;5040360;28;20037;-84
2023/01/06 10:11:50;;;;;;;10.82;2.17;;;11.20;99.90;;;;;;5014893;28;20032;-83
2023/01/06 10:14:38;;;;;;;7.45;1.60;;;11.10;99.90;;;;;;5021507;28;20619;-81
2023/01/06 10:17:24;;;;;;;10.00;1.27;;;11.00;99.90;;;;;;5036702;28;20025;-85
2023/01/06 10:20:24;;;;;;;7.90;1.40;;;10.90;99.90;;;;;;5033249;28;20045;-80
2023/01/06 10:22:59;;;;;;;5.75;1.00;;;11.00;99.90;;;;;;5034984;28;20052;-83
2023/01/06 10:25:32;;;;;;;6.28;2.63;;;11.30;99.90;;;;;;5033862;28;20033;-81
2023/01/06 10:28:11;;;;;;;7.20;2.20;;;11.80;99.90;;;;;;5034714;28;20033;-81
2023/01/06 10:30:46;;;;;;;5.45;1.10;;;12.30;99.90;;;;;;5005250;28;20722;-84
2023/01/06 10:33:32;;;;;;;5.30;0.80;;;12.70;99.90;;;;;;5013900;28;20048;-82
2023/01/06 10:35:59;;;;;;;6.22;1.05;;;13.00;99.90;;;;;;5030053;28;20029;-81
2023/01/06 10:38:42;;;;;;;3.85;1.25;;;13.00;99.90;;;;;;5011034;28;20029;-83
2023/01/06 10:41:27;;;;;;;5.78;1.23;;;12.90;99.90;;;;;;5030500;28;20033;-83
2023/01/06 10:43:53;;;;;;;5.13;0.98;;;12.70;99.90;;;;;;5010742;28;20167;-86
2023/01/06 10:46:19;;;;;;;5.13;0.60;;;12.50;99.90;;;;;;5036806;28;20040;-86
2023/01/06 10:48:48;;;;;;;4.72;0.75;;;12.40;99.90;;;;;;5015060;28;20095;-85
2023/01/06 10:51:34;;;;;;;5.13;0.50;;;12.20;99.90;;;;;;5035043;28;20032;-87
2023/01/06 10:54:08;;;;;;;5.32;0.60;;;12.20;99.90;;;;;;5020684;28;20049;-86
2023/01/06 10:56:42;;;;;;;3.35;0.50;;;12.20;99.90;;;;;;5037554;28;20037;-87
2023/01/06 10:59:10;;;;;;;4.93;0.50;;;12.20;99.90;;;;;;5012779;28;20077;-83
2023/01/06 11:01:50;;;;;;;5.03;0.65;;;12.20;99.90;;;;;;5012969;28;20048;-83
2023/01/06 11:04:18;;;;;;;4.60;0.52;;;12.30;99.90;;;;;;5032516;28;20041;-85
2023/01/06 11:07:00;;;;;;;4.10;0.43;;;12.30;99.90;;;;;;5028739;28;20033;-78
2023/01/06 11:09:41;;;;;;;2.85;0.60;;;12.30;99.90;;;;;;5041839;28;20547;-86
2023/01/06 11:12:19;;;;;;;5.03;0.50;;;12.30;99.90;;;;;;5032329;28;20049;-85
2023/01/06 11:14:59;;;;;;;3.13;0.40;;;12.20;99.90;;;;;;5000416;28;20045;-85
2023/01/06 11:17:27;;;;;;;7.57;0.82;;;12.10;99.90;;;;;;5019009;28;20053;-80
2023/01/06 11:20:08;;;;;;;4.13;0.50;;;12.00;99.90;;;;;;5037048;28;20464;-85
2023/01/06 11:22:39;;;;;;;4.93;0.40;;;11.90;99.90;;;;;;5032525;28;20033;-88
2023/01/06 11:25:20;;;;;;;5.63;0.55;;;11.80;99.90;;;;;;5028248;28;20041;-85
2023/01/06 11:27:49;;;;;;;5.95;0.43;;;11.70;99.90;;;;;;5031852;28;20044;-84
2023/01/06 11:30:26;;;;;;;3.85;0.45;;;11.60;99.90;;;;;;5030896;28;20032;-82
2023/01/06 11:32:53;;;;;;;3.90;0.57;;;11.60;99.90;;;;;;5032548;28;20409;-83
2023/01/06 11:35:23;;;;;;;6.60;0.77;;;11.50;99.90;;;;;;5006146;28;20375;-82
2023/01/06 11:37:56;;;;;;;7.60;0.60;;;11.50;99.90;;;;;;4993551;28;20036;-83
2023/01/06 11:40:28;;;;;;;4.95;0.60;;;11.50;99.90;;;;;;5028452;28;20034;-82
2023/01/06 11:43:02;;;;;;;2.40;0.20;;;11.50;99.90;;;;;;5031143;28;20033;-81
2023/01/06 11:45:33;;;;;;;4.10;0.30;;;11.50;99.90;;;;;;5030611;28;20491;-81
2023/01/06 11:48:01;;;;;;;2.67;0.50;;;11.50;99.90;;;;;;5015608;28;20029;-83
2023/01/06 11:50:28;;;;;;;5.40;0.40;;;11.50;99.90;;;;;;5011501;28;20491;-82
2023/01/06 11:52:59;;;;;;;7.10;0.60;;;11.50;99.90;;;;;;5026321;28;20057;-81
2023/01/06 11:55:26;;;;;;;5.60;0.70;;;11.60;99.90;;;;;;5023463;28;20029;-81
2023/01/06 11:58:20;;;;;;;4.95;0.60;;;11.60;99.90;;;;;;5015023;28;20306;-81
2023/01/06 12:00:56;;;;;;;5.22;0.65;;;11.70;99.90;;;;;;5014649;28;20360;-82
2023/01/06 12:03:29;;;;;;;4.18;0.40;;;11.70;99.90;;;;;;5037335;28;20037;-81
2023/01/06 12:06:25;;;;;;;4.65;0.50;;;11.70;99.90;;;;;;5016185;28;20041;-82
2023/01/06 12:09:16;;;;;;;4.72;0.50;;;11.70;99.90;;;;;;5023936;28;20388;-82
2023/01/06 12:11:47;;;;;;;3.00;0.30;;;11.70;99.90;;;;;;5009961;28;20040;-82
2023/01/06 12:14:22;;;;;;;4.63;0.40;;;11.70;99.90;;;;;;5034908;28;20273;-85
2023/01/06 12:17:07;;;;;;;3.35;0.63;;;11.80;99.90;;;;;;5012320;28;20460;-83
2023/01/06 12:19:37;;;;;;;4.90;0.65;;;11.80;99.90;;;;;;5028339;28;20241;-80
2023/01/06 12:22:10;;;;;;;5.07;0.45;;;11.80;99.90;;;;;;5010696;28;20029;-82
2023/01/06 12:24:37;;;;;;;2.25;0.30;;;11.80;99.90;;;;;;4995512;28;20143;-83
2023/01/06 12:27:05;;;;;;;5.95;0.68;;;11.90;99.90;;;;;;5031305;28;20033;-83
2023/01/06 12:29:33;;;;;;;4.80;0.70;;;11.90;99.90;;;;;;5027832;28;20061;-84
2023/01/06 12:32:09;;;;;;;7.82;0.70;;;12.00;99.90;;;;;;5010281;28;20376;-82
2023/01/06 12:34:47;;;;;;;3.63;0.50;;;12.00;99.90;;;;;;5042005;28;20060;-82
2023/01/06 12:37:57;;;;;;;5.97;0.40;;;12.00;99.90;;;;;;5013601;28;20439;-80
2023/01/06 12:40:43;;;;;;;3.85;0.85;;;12.10;99.90;;;;;;5013717;28;20347;-85
2023/01/06 12:43:22;;;;;;;6.15;0.50;;;12.10;99.90;;;;;;5024083;28;20044;-82
2023/01/06 12:46:14;;;;;;;6.40;0.73;;;12.20;99.90;;;;;;5030412;28;20041;-81
2023/01/06 12:48:46;;;;;;;2.75;0.30;;;12.20;99.90;;;;;;4998258;28;20033;-82
2023/01/06 12:51:17;;;;;;;3.50;0.40;;;12.10;99.90;;;;;;5010352;28;20471;-82
2023/01/06 12:53:52;;;;;;;3.53;0.57;;;12.10;99.90;;;;;;4999504;28;20036;-84
2023/01/06 12:56:39;;;;;;;4.38;0.57;;;12.10;99.90;;;;;;4999085;28;20036;-83
2023/01/06 12:59:32;;;;;;;2.63;0.30;;;12.10;99.90;;;;;;5009164;28;20550;-82
2023/01/06 13:02:07;;;;;;;4.10;0.50;;;12.10;99.90;;;;;;5026977;28;20465;-80
2023/01/06 13:04:56;;;;;;;3.30;0.30;;;12.10;99.90;;;;;;5011040;28;20045;-83
2023/01/06 13:07:51;;;;;;;3.35;0.65;;;12.00;99.90;;;;;;5026977;28;20052;-81
2023/01/06 13:10:37;;;;;;;2.88;0.50;;;12.00;99.90;;;;;;5031693;28;20038;-81
2023/01/06 13:13:31;;;;;;;4.80;0.43;;;12.00;99.90;;;;;;5036589;28;20478;-81
2023/01/06 13:16:14;;;;;;;2.50;0.47;;;12.00;99.90;;;;;;5031962;28;20384;-85